Silver, Texas
Current Conditions -  °F | °C
As of 1:55 PM on Friday 24 Oct 2014 (Local Time) from KSWW Reporting Station
Clear Clear  
Wind Chill: 82°   Ceiling: Unl
Heat Index: 82°   Visibility: 10mi
Dew Point: 57°   Wind: 10mph
Humidity: 42%   Direction: 200°SSW
Pressure: 30.17"   Gusts: NA
Location:  32.07°N, 100.68°W
Report Text: KSWW 241855Z AUTO 20009KT 10SM CLR 28/14 A3017 RMK AO2 T02790140
Loading
Personal Weather Stations






























Interactive Weather Map
Tropical Storm Tracking
New forecast layout! Learn more

10-Day Weather Forecast

Advertisements
Track Severe Weather on mobile